Seattle, Washington
Traffic Map
Current Weather Conditions
Seattle, Washington
Clear
Clear
74°
Feels Like: 74°
Wind Chill: 74° Ceiling: Unl
Heat Index: 74° Visibility: 10mi
Dew Point: 53° Wind: 3mph
Humidity: 48% Direction: 310° (NW)
Pressure: 30.08in Gusts: 0mph
Raw Report DataKBFI 300453Z 31003KT 10SM CLR 23/12 A3008 RMK AO2 SLP185 T02330117
Traffic Incident Summary
Active as of:
Severity:
Category:
InformationThere was an issue retrieving the traffic information for this location. Please try a different location or try again shortly.
Advertisements
Track Severe Weather on mobile